Time;durP1;ratioP1;P1;durP2;ratioP2;P2;SDS_P1;SDS_P2;PMS_P1;PMS_P2;Temp;Humidity;BMP_temperature;BMP_pressure;BME280_temperature;BME280_humidity;BME280_pressure;Samples;Min_cycle;Max_cycle;Signal;HPM_P1;HPM_P2
2022/04/28 00:02:19;;;;;;;6.78;3.40;;;4.20;93.40;;;;;;4952048;28;20099;-79
2022/04/28 00:04:45;;;;;;;7.55;4.28;;;4.20;93.60;;;;;;4940867;28;20050;-78
2022/04/28 00:07:10;;;;;;;11.80;4.18;;;4.20;93.60;;;;;;4941785;28;20023;-79
2022/04/28 00:09:36;;;;;;;13.07;4.10;;;4.10;93.70;;;;;;4944980;28;20650;-78
2022/04/28 00:12:03;;;;;;;15.40;4.50;;;4.10;93.70;;;;;;4939677;28;20028;-78
2022/04/28 00:14:30;;;;;;;10.48;4.00;;;4.10;94.00;;;;;;4930820;28;20043;-78
2022/04/28 00:16:55;;;;;;;11.40;3.80;;;4.00;94.10;;;;;;4945632;28;20042;-78
2022/04/28 00:19:21;;;;;;;5.78;3.58;;;4.00;94.00;;;;;;4945695;28;20050;-78
2022/04/28 00:21:47;;;;;;;10.52;4.10;;;4.00;94.00;;;;;;4947557;28;20121;-79
2022/04/28 00:24:12;;;;;;;14.68;4.93;;;4.00;94.20;;;;;;4922457;28;20145;-81
2022/04/28 00:26:38;;;;;;;10.57;4.60;;;3.90;94.20;;;;;;4935503;28;20027;-77
2022/04/28 00:29:03;;;;;;;9.10;4.28;;;3.90;94.30;;;;;;4938386;28;20036;-78
2022/04/28 00:31:29;;;;;;;14.00;5.13;;;3.90;94.20;;;;;;4933958;28;20158;-77
2022/04/28 00:33:55;;;;;;;8.15;3.95;;;3.80;94.30;;;;;;4930435;29;20517;-78
2022/04/28 00:36:21;;;;;;;12.18;4.05;;;3.80;94.40;;;;;;4930606;28;20036;-79
2022/04/28 00:38:47;;;;;;;13.48;4.25;;;3.80;94.40;;;;;;4934997;29;20039;-78
2022/04/28 00:41:13;;;;;;;11.18;4.32;;;3.70;94.30;;;;;;4934727;28;20035;-78
2022/04/28 00:43:49;;;;;;;8.50;4.47;;;3.70;94.20;;;;;;4937146;28;20097;-79
2022/04/28 00:46:15;;;;;;;7.88;3.97;;;3.60;94.20;;;;;;4935660;28;20035;-79
2022/04/28 00:51:26;;;;;;;10.88;4.00;;;3.50;94.40;;;;;;4933441;28;20066;-78
2022/04/28 00:53:53;;;;;;;13.60;4.45;;;3.40;94.40;;;;;;4933989;29;20070;-78
2022/04/28 00:56:18;;;;;;;7.57;3.85;;;3.30;94.40;;;;;;4956017;28;20057;-78
2022/04/28 00:58:46;;;;;;;11.00;4.25;;;3.30;94.60;;;;;;4935855;28;20034;-79
2022/04/28 01:01:11;;;;;;;9.07;4.53;;;3.20;94.90;;;;;;4931402;28;20483;-77
2022/04/28 01:03:37;;;;;;;9.85;4.60;;;3.10;94.90;;;;;;4938862;28;20443;-75
2022/04/28 01:06:03;;;;;;;14.50;4.50;;;3.10;95.10;;;;;;4927186;28;20491;-75
2022/04/28 01:08:29;;;;;;;12.43;5.05;;;3.00;95.20;;;;;;4932424;28;20022;-75
2022/04/28 01:10:56;;;;;;;10.25;4.38;;;3.00;95.40;;;;;;4930689;28;20536;-75
2022/04/28 01:13:22;;;;;;;8.13;3.92;;;2.90;95.40;;;;;;4931824;28;20027;-75
2022/04/28 01:15:49;;;;;;;13.13;5.80;;;2.90;95.60;;;;;;4932228;28;20550;-76
2022/04/28 01:18:16;;;;;;;12.98;4.65;;;2.90;95.60;;;;;;4939538;28;20045;-75
2022/04/28 01:20:43;;;;;;;8.25;4.15;;;2.90;95.60;;;;;;4933987;28;20043;-75
2022/04/28 01:23:09;;;;;;;14.85;4.45;;;2.90;95.70;;;;;;4934304;28;20562;-75
2022/04/28 01:25:35;;;;;;;14.85;5.30;;;2.90;95.90;;;;;;4932780;28;20035;-75
2022/04/28 01:28:01;;;;;;;10.75;4.97;;;2.90;96.00;;;;;;4938684;28;20101;-76
2022/04/28 01:30:27;;;;;;;9.73;4.78;;;2.90;96.10;;;;;;4937064;28;20122;-76
2022/04/28 01:32:54;;;;;;;7.60;5.10;;;2.90;96.20;;;;;;4936929;29;20259;-76
2022/04/28 01:35:20;;;;;;;11.77;5.53;;;2.90;96.20;;;;;;4936692;28;20134;-76
2022/04/28 01:37:46;;;;;;;9.20;5.30;;;2.80;96.00;;;;;;4930697;28;20513;-76
2022/04/28 01:40:12;;;;;;;8.50;4.13;;;2.80;96.00;;;;;;4936338;28;20749;-76
2022/04/28 01:42:45;;;;;;;10.23;4.00;;;2.70;96.10;;;;;;4939825;28;20035;-75
2022/04/28 01:45:11;;;;;;;8.90;3.80;;;2.70;96.10;;;;;;4930684;28;20023;-76
2022/04/28 01:47:37;;;;;;;13.20;3.97;;;2.60;96.00;;;;;;4931739;28;20634;-75
2022/04/28 01:50:04;;;;;;;9.02;4.93;;;2.50;95.70;;;;;;4945742;28;20117;-76
2022/04/28 01:55:15;;;;;;;9.18;4.38;;;2.40;95.70;;;;;;4936911;28;20491;-76
2022/04/28 01:57:41;;;;;;;12.15;4.63;;;2.30;95.90;;;;;;4952829;28;20031;-75
2022/04/28 02:00:08;;;;;;;10.50;4.63;;;2.20;96.00;;;;;;4941192;28;20031;-76
2022/04/28 02:02:34;;;;;;;9.20;3.67;;;2.20;96.20;;;;;;4920177;28;20110;-75
2022/04/28 02:05:01;;;;;;;11.15;4.68;;;2.20;96.50;;;;;;4930521;28;20027;-76
2022/04/28 02:07:28;;;;;;;12.93;5.20;;;2.20;96.60;;;;;;4937954;28;20254;-76
2022/04/28 02:09:54;;;;;;;9.95;4.88;;;2.30;96.80;;;;;;4938036;28;20095;-77
2022/04/28 02:12:20;;;;;;;14.13;4.88;;;2.30;96.90;;;;;;4940061;28;20034;-76
2022/04/28 02:14:46;;;;;;;11.25;5.43;;;2.30;96.90;;;;;;4927553;28;20070;-76
2022/04/28 02:17:16;;;;;;;9.90;5.35;;;2.30;97.00;;;;;;4925681;28;20038;-75
2022/04/28 02:19:41;;;;;;;9.32;4.57;;;2.30;96.90;;;;;;4925753;28;20036;-76
2022/04/28 02:22:07;;;;;;;13.68;5.45;;;2.30;96.90;;;;;;4917790;28;20391;-77
2022/04/28 02:24:34;;;;;;;9.65;4.38;;;2.30;96.90;;;;;;4934195;28;20055;-75
2022/04/28 02:27:00;;;;;;;10.30;4.60;;;2.30;96.90;;;;;;4930305;28;20766;-76
2022/04/28 02:29:26;;;;;;;14.73;5.45;;;2.40;97.10;;;;;;4943111;28;20047;-78
2022/04/28 02:31:51;;;;;;;13.82;4.60;;;2.50;97.30;;;;;;4940081;28;20033;-78
2022/04/28 02:34:17;;;;;;;9.77;5.00;;;2.50;97.40;;;;;;4941403;28;20028;-76
2022/04/28 02:36:43;;;;;;;16.70;6.05;;;2.60;97.60;;;;;;4953580;28;20118;-78
2022/04/28 02:39:09;;;;;;;10.32;4.18;;;2.70;97.60;;;;;;4938382;28;20626;-75
2022/04/28 02:41:36;;;;;;;13.98;6.15;;;2.70;97.70;;;;;;4931873;28;20547;-78
2022/04/28 02:44:02;;;;;;;11.85;4.97;;;2.80;97.60;;;;;;4929286;28;20249;-78
2022/04/28 02:46:29;;;;;;;12.63;5.13;;;2.80;97.60;;;;;;4948683;28;20058;-75
2022/04/28 02:48:54;;;;;;;17.10;5.47;;;2.80;97.50;;;;;;4930271;28;20066;-75
2022/04/28 02:51:20;;;;;;;13.13;4.68;;;2.80;97.50;;;;;;4932349;28;20102;-77
2022/04/28 02:53:46;;;;;;;10.93;5.07;;;2.70;97.30;;;;;;4932972;29;20035;-75
2022/04/28 02:56:11;;;;;;;12.85;5.45;;;2.70;97.10;;;;;;4930242;28;20411;-75
2022/04/28 02:58:37;;;;;;;11.63;4.68;;;2.60;97.10;;;;;;4930055;28;20546;-75
2022/04/28 03:01:03;;;;;;;13.52;5.05;;;2.60;97.20;;;;;;4934976;29;20074;-75
2022/04/28 03:03:30;;;;;;;15.45;4.85;;;2.70;97.40;;;;;;4933674;29;20137;-75
2022/04/28 03:11:24;;;;;;;12.18;5.40;;;2.70;97.50;;;;;;4938118;28;20140;-76
2022/04/28 03:13:50;;;;;;;10.95;4.43;;;2.70;97.50;;;;;;4932708;28;20039;-78
2022/04/28 03:16:16;;;;;;;13.18;5.18;;;2.80;97.50;;;;;;4939170;28;20332;-75
2022/04/28 03:18:45;;;;;;;9.32;4.68;;;2.80;97.50;;;;;;4934441;28;20347;-75
2022/04/28 03:21:11;;;;;;;13.02;5.10;;;2.70;97.50;;;;;;4930650;28;20031;-75
2022/04/28 03:23:37;;;;;;;19.08;5.70;;;2.70;97.50;;;;;;4929219;28;20040;-75
2022/04/28 03:26:06;;;;;;;8.73;4.80;;;2.80;97.60;;;;;;4939220;28;20129;-75
2022/04/28 03:28:35;;;;;;;13.43;5.20;;;2.80;97.60;;;;;;4931283;28;20046;-75
2022/04/28 03:31:02;;;;;;;10.77;4.80;;;2.70;97.50;;;;;;4949060;28;20034;-75
2022/04/28 03:33:27;;;;;;;10.50;5.30;;;2.70;97.50;;;;;;4931663;28;20133;-78
2022/04/28 03:35:53;;;;;;;13.77;5.32;;;2.70;97.50;;;;;;4946046;28;20498;-75
2022/04/28 03:38:19;;;;;;;11.75;6.07;;;2.70;97.50;;;;;;4933830;28;20035;-78
2022/04/28 03:40:45;;;;;;;12.77;5.03;;;2.70;97.50;;;;;;4943828;28;20424;-75
2022/04/28 03:43:12;;;;;;;11.32;5.15;;;2.70;97.50;;;;;;4925226;28;20028;-75
2022/04/28 03:45:38;;;;;;;11.65;4.88;;;2.70;97.50;;;;;;4915189;29;20034;-75
2022/04/28 03:48:04;;;;;;;12.18;5.10;;;2.60;97.40;;;;;;4934082;28;20756;-75
2022/04/28 03:50:31;;;;;;;7.85;4.57;;;2.50;97.30;;;;;;4935047;28;20031;-76
2022/04/28 03:53:00;;;;;;;11.77;4.60;;;2.50;97.40;;;;;;4937082;28;20500;-78
2022/04/28 03:55:25;;;;;;;12.52;5.28;;;2.40;97.20;;;;;;4924243;28;20062;-75
2022/04/28 03:57:51;;;;;;;11.32;4.47;;;2.30;97.00;;;;;;4934222;28;20176;-76
2022/04/28 04:00:18;;;;;;;7.15;4.28;;;2.20;96.90;;;;;;4926271;28;20551;-78
2022/04/28 04:02:44;;;;;;;11.25;4.70;;;2.10;96.50;;;;;;4935272;28;20118;-76
2022/04/28 04:05:10;;;;;;;10.65;4.47;;;2.00;96.40;;;;;;4928875;28;20028;-79
2022/04/28 04:07:38;;;;;;;11.05;5.32;;;1.90;96.40;;;;;;4943020;28;20035;-75
2022/04/28 04:10:05;;;;;;;9.50;5.55;;;1.90;96.50;;;;;;4945190;28;20043;-78
2022/04/28 04:12:30;;;;;;;7.00;4.60;;;1.90;96.70;;;;;;4941147;29;20043;-78
2022/04/28 04:14:56;;;;;;;8.98;5.10;;;1.90;96.90;;;;;;4941236;28;20454;-78
2022/04/28 04:17:22;;;;;;;8.63;4.22;;;1.90;97.00;;;;;;4956698;28;20035;-78
2022/04/28 04:19:47;;;;;;;14.95;5.63;;;2.00;97.10;;;;;;4929973;28;20523;-78
2022/04/28 04:22:13;;;;;;;9.50;4.85;;;2.00;97.20;;;;;;4937823;29;20425;-78
2022/04/28 04:24:40;;;;;;;13.63;5.07;;;2.00;97.30;;;;;;4938752;28;20031;-77
2022/04/28 04:27:06;;;;;;;11.93;5.57;;;2.10;97.40;;;;;;4929442;28;20066;-78
2022/04/28 04:29:32;;;;;;;13.35;4.75;;;2.10;97.60;;;;;;4935586;28;20120;-77
2022/04/28 04:34:42;;;;;;;11.57;5.78;;;2.30;97.90;;;;;;4933860;28;20227;-77
2022/04/28 04:37:08;;;;;;;12.82;6.22;;;2.40;97.90;;;;;;4942600;28;20367;-78
2022/04/28 04:39:34;;;;;;;14.63;5.78;;;2.40;98.00;;;;;;4943492;28;20035;-77
2022/04/28 04:41:59;;;;;;;10.63;5.22;;;2.40;98.00;;;;;;4937581;28;20499;-78
2022/04/28 04:44:25;;;;;;;11.60;5.07;;;2.50;98.00;;;;;;4928853;28;20043;-78
2022/04/28 04:46:50;;;;;;;13.20;5.20;;;2.50;98.00;;;;;;4928860;28;20745;-78
2022/04/28 04:49:17;;;;;;;13.13;5.35;;;2.50;98.00;;;;;;4935568;28;20355;-78
2022/04/28 04:51:43;;;;;;;10.52;4.60;;;2.50;97.80;;;;;;4934788;28;20023;-78
2022/04/28 04:54:09;;;;;;;10.38;4.47;;;2.40;97.50;;;;;;4931843;28;20031;-78
2022/04/28 04:56:36;;;;;;;9.68;5.00;;;2.30;97.00;;;;;;4933431;28;20325;-78
2022/04/28 04:59:02;;;;;;;9.57;4.30;;;2.30;96.70;;;;;;4931252;28;20031;-78
2022/04/28 05:01:28;;;;;;;8.68;4.43;;;2.30;96.60;;;;;;4938039;28;20054;-77
2022/04/28 05:03:53;;;;;;;10.25;4.38;;;2.30;96.40;;;;;;4936257;28;20031;-78
2022/04/28 05:06:19;;;;;;;8.93;4.00;;;2.30;96.20;;;;;;4936736;28;20039;-77
2022/04/28 05:08:44;;;;;;;7.10;4.45;;;2.30;96.00;;;;;;4931622;28;20053;-78
2022/04/28 05:11:10;;;;;;;11.23;4.75;;;2.30;96.20;;;;;;4943174;28;20022;-78
2022/04/28 05:13:36;;;;;;;12.20;4.88;;;2.30;96.30;;;;;;4937752;28;20333;-77
2022/04/28 05:16:01;;;;;;;9.50;4.90;;;2.40;96.30;;;;;;4940306;28;20121;-77
2022/04/28 05:18:28;;;;;;;10.90;5.22;;;2.50;96.40;;;;;;4932992;28;20087;-77
2022/04/28 05:20:54;;;;;;;14.82;4.85;;;2.60;96.60;;;;;;4939035;28;20113;-77
2022/04/28 05:23:20;;;;;;;15.75;5.18;;;2.80;96.70;;;;;;4935877;28;20027;-78
2022/04/28 05:25:46;;;;;;;14.32;6.03;;;2.90;96.60;;;;;;4939074;28;20058;-77
2022/04/28 05:28:12;;;;;;;8.93;5.47;;;3.10;96.20;;;;;;4934541;28;20487;-77
2022/04/28 05:30:37;;;;;;;10.20;4.30;;;3.30;95.80;;;;;;4939460;28;20395;-77
2022/04/28 05:33:03;;;;;;;9.82;4.15;;;3.50;95.30;;;;;;4932848;28;20403;-77
2022/04/28 05:35:29;;;;;;;9.05;4.97;;;3.60;95.10;;;;;;4934157;28;20146;-77
2022/04/28 05:37:55;;;;;;;7.97;4.13;;;3.80;94.70;;;;;;4938555;28;20035;-78
2022/04/28 05:40:21;;;;;;;8.68;5.03;;;3.90;94.10;;;;;;4944380;28;20066;-77
2022/04/28 05:45:46;;;;;;;8.43;4.28;;;4.30;93.50;;;;;;4935013;28;20113;-78
2022/04/28 05:48:16;;;;;;;11.27;4.97;;;4.50;93.30;;;;;;4935398;28;20031;-78
2022/04/28 05:50:42;;;;;;;12.27;4.50;;;4.80;93.20;;;;;;4930168;28;20133;-77
2022/04/28 05:53:09;;;;;;;9.93;4.70;;;5.00;92.90;;;;;;4949177;28;20532;-78
2022/04/28 05:55:35;;;;;;;12.57;4.78;;;5.20;92.50;;;;;;4934719;28;20137;-77
2022/04/28 05:58:01;;;;;;;6.70;4.00;;;5.50;92.20;;;;;;4937851;28;20035;-78
2022/04/28 06:00:27;;;;;;;11.90;4.53;;;5.80;92.00;;;;;;4933647;28;20323;-77
2022/04/28 06:02:54;;;;;;;10.48;4.43;;;6.00;91.60;;;;;;4938276;28;20039;-77
2022/04/28 06:05:20;;;;;;;12.15;5.22;;;6.20;91.40;;;;;;4927320;28;20043;-78
2022/04/28 06:07:45;;;;;;;11.43;4.47;;;6.40;91.30;;;;;;4923036;28;20305;-77
2022/04/28 06:10:12;;;;;;;14.68;5.22;;;6.50;91.20;;;;;;4911743;28;20023;-78
2022/04/28 06:12:38;;;;;;;8.73;4.30;;;6.70;91.00;;;;;;4924535;28;20039;-77
2022/04/28 06:15:04;;;;;;;10.80;4.50;;;6.90;90.70;;;;;;4930095;28;20047;-81
2022/04/28 06:17:29;;;;;;;7.93;5.05;;;7.10;90.40;;;;;;4930323;28;20027;-79
2022/04/28 06:19:55;;;;;;;8.80;4.68;;;7.20;90.00;;;;;;4930666;28;20645;-81
2022/04/28 06:22:20;;;;;;;11.23;5.10;;;7.30;89.80;;;;;;4931851;28;20059;-77
2022/04/28 06:24:56;;;;;;;10.35;4.65;;;7.50;89.40;;;;;;4937017;28;20094;-77
2022/04/28 06:27:22;;;;;;;7.30;4.47;;;7.60;88.80;;;;;;4948567;28;20514;-78
2022/04/28 06:29:49;;;;;;;8.75;4.47;;;7.70;89.30;;;;;;4936064;28;20038;-77
2022/04/28 06:32:18;;;;;;;7.97;4.25;;;7.80;89.10;;;;;;4923967;28;20031;-77
2022/04/28 06:34:45;;;;;;;12.63;6.93;;;7.90;90.00;;;;;;4921654;28;20339;-77
2022/04/28 06:37:12;;;;;;;9.20;5.75;;;8.10;88.90;;;;;;4920743;28;20035;-77
2022/04/28 06:39:38;;;;;;;7.07;4.22;;;8.20;88.50;;;;;;4928479;28;20192;-77
2022/04/28 06:42:04;;;;;;;11.10;4.03;;;8.40;87.20;;;;;;4929047;28;20325;-78
2022/04/28 06:44:30;;;;;;;7.18;4.10;;;8.50;86.90;;;;;;4926010;28;20031;-78
2022/04/28 06:46:55;;;;;;;7.25;3.95;;;8.50;86.40;;;;;;4931443;28;20022;-78
2022/04/28 06:49:21;;;;;;;13.55;4.30;;;8.60;87.90;;;;;;4931868;28;20032;-77
2022/04/28 06:51:47;;;;;;;12.88;3.95;;;8.80;87.50;;;;;;4931400;29;20116;-77
2022/04/28 06:54:12;;;;;;;5.60;3.88;;;9.00;86.50;;;;;;4929134;29;20381;-78
2022/04/28 06:56:38;;;;;;;6.15;3.42;;;9.00;85.70;;;;;;4930692;28;20036;-77
2022/04/28 06:59:04;;;;;;;8.60;3.92;;;9.10;85.60;;;;;;4935541;28;20058;-78
2022/04/28 07:01:31;;;;;;;7.60;4.30;;;9.20;85.20;;;;;;4929858;29;20514;-78
2022/04/28 07:03:56;;;;;;;7.43;4.50;;;9.50;85.50;;;;;;4938054;28;20031;-77
2022/04/28 07:06:22;;;;;;;11.98;4.60;;;9.80;84.10;;;;;;4937215;28;20565;-78
2022/04/28 07:08:47;;;;;;;10.60;4.05;;;9.90;82.20;;;;;;4934000;28;20106;-77
2022/04/28 07:11:13;;;;;;;8.73;4.53;;;10.10;82.00;;;;;;4929462;28;20424;-77
2022/04/28 07:13:39;;;;;;;8.18;4.05;;;10.30;82.10;;;;;;4934490;28;20081;-77
2022/04/28 07:16:05;;;;;;;11.00;4.55;;;10.30;80.30;;;;;;4929547;28;20048;-77
2022/04/28 07:18:31;;;;;;;9.10;4.60;;;10.50;77.90;;;;;;4930248;28;20570;-77
2022/04/28 07:20:59;;;;;;;6.60;3.90;;;10.60;77.50;;;;;;4921353;28;20067;-78
2022/04/28 07:23:25;;;;;;;10.20;4.00;;;10.70;77.80;;;;;;4930281;28;20027;-76
2022/04/28 07:25:51;;;;;;;9.88;4.85;;;10.80;78.90;;;;;;4933343;28;20035;-77
2022/04/28 07:28:16;;;;;;;6.72;3.25;;;10.80;76.70;;;;;;4936864;28;20098;-77
2022/04/28 07:30:42;;;;;;;7.13;4.28;;;11.10;78.10;;;;;;4928580;28;20196;-77
2022/04/28 07:33:08;;;;;;;8.23;4.18;;;11.20;75.10;;;;;;4934202;28;20580;-77
2022/04/28 07:35:34;;;;;;;12.02;4.15;;;11.20;76.50;;;;;;4929481;28;20051;-77
2022/04/28 07:38:00;;;;;;;9.65;4.82;;;11.40;76.60;;;;;;4918802;28;20037;-77
2022/04/28 07:40:26;;;;;;;8.13;3.90;;;11.50;73.70;;;;;;4932896;28;20031;-77
2022/04/28 07:42:51;;;;;;;8.02;4.00;;;11.70;73.50;;;;;;4932081;28;20459;-77
2022/04/28 07:45:17;;;;;;;11.43;4.22;;;11.80;71.90;;;;;;4946216;28;20534;-78
2022/04/28 07:47:43;;;;;;;8.80;3.80;;;11.90;71.30;;;;;;4931181;28;20023;-76
2022/04/28 07:50:10;;;;;;;6.55;3.65;;;11.90;72.60;;;;;;4926072;28;20035;-78
2022/04/28 07:52:37;;;;;;;9.80;3.80;;;12.60;71.10;;;;;;4931908;28;20038;-77
2022/04/28 07:55:04;;;;;;;7.95;3.40;;;12.60;69.00;;;;;;4930776;28;20414;-77
2022/04/28 07:57:30;;;;;;;12.23;4.20;;;12.50;70.40;;;;;;4934096;28;20031;-78
2022/04/28 07:59:55;;;;;;;8.50;3.72;;;12.50;68.80;;;;;;4932478;28;20482;-77
2022/04/28 08:02:21;;;;;;;10.82;3.72;;;12.40;69.60;;;;;;4938625;28;20106;-77
2022/04/28 08:04:47;;;;;;;11.10;3.70;;;12.40;68.20;;;;;;4931016;28;20023;-76
2022/04/28 08:07:12;;;;;;;10.02;4.40;;;12.30;70.50;;;;;;4932239;28;20090;-77
2022/04/28 08:09:38;;;;;;;9.45;4.10;;;12.40;69.20;;;;;;4937333;28;20793;-76
2022/04/28 08:12:05;;;;;;;8.10;4.07;;;12.70;70.80;;;;;;4940022;28;20037;-77
2022/04/28 08:14:32;;;;;;;9.00;4.10;;;13.40;68.30;;;;;;4933044;28;20035;-77
2022/04/28 08:16:58;;;;;;;7.70;4.13;;;13.80;67.20;;;;;;4935991;28;20565;-76
2022/04/28 08:19:24;;;;;;;6.45;3.22;;;14.10;63.70;;;;;;4926961;28;20110;-77
2022/04/28 08:21:50;;;;;;;10.60;4.28;;;14.10;63.00;;;;;;4934381;28;20034;-76
2022/04/28 08:24:16;;;;;;;9.70;3.83;;;14.20;64.60;;;;;;4932335;28;20253;-76
2022/04/28 08:26:42;;;;;;;6.05;4.30;;;14.20;66.20;;;;;;4940557;28;20054;-77
2022/04/28 08:29:08;;;;;;;7.35;3.92;;;14.00;65.10;;;;;;4928304;28;20130;-77
2022/04/28 08:31:34;;;;;;;10.30;3.90;;;13.70;63.90;;;;;;4927554;28;20458;-77
2022/04/28 08:34:00;;;;;;;5.88;3.95;;;13.70;67.20;;;;;;4934876;28;20469;-76
2022/04/28 08:36:25;;;;;;;6.97;4.25;;;14.30;64.90;;;;;;4929731;28;20914;-77
2022/04/28 08:38:52;;;;;;;9.68;4.22;;;14.70;64.00;;;;;;4918546;28;20283;-76
2022/04/28 08:41:44;;;;;;;8.80;4.40;;;14.60;61.70;;;;;;4930021;28;20035;-77
2022/04/28 08:44:18;;;;;;;7.00;4.00;;;14.30;62.70;;;;;;4931914;28;20058;-77
2022/04/28 08:46:51;;;;;;;5.55;3.63;;;14.10;64.90;;;;;;4917669;28;20036;-77
2022/04/28 08:49:25;;;;;;;7.65;3.80;;;14.10;65.10;;;;;;4929583;28;20035;-77
2022/04/28 08:51:54;;;;;;;10.27;4.35;;;14.30;66.80;;;;;;4934884;28;20444;-80
2022/04/28 08:54:21;;;;;;;11.80;4.43;;;14.20;63.10;;;;;;4933067;28;20097;-77
2022/04/28 08:56:47;;;;;;;7.45;4.10;;;14.30;64.30;;;;;;4928772;28;20439;-76
2022/04/28 08:59:14;;;;;;;7.50;4.35;;;14.50;63.70;;;;;;4932799;28;20535;-78
2022/04/28 09:01:41;;;;;;;12.57;4.20;;;14.40;62.80;;;;;;4927860;28;20035;-79
2022/04/28 09:04:10;;;;;;;11.05;4.50;;;14.30;62.90;;;;;;4932759;28;20028;-78
2022/04/28 09:06:36;;;;;;;7.75;4.55;;;14.10;65.90;;;;;;4929585;28;20058;-75
2022/04/28 09:09:10;;;;;;;11.15;5.00;;;14.40;65.80;;;;;;4933003;28;20395;-80
2022/04/28 09:11:39;;;;;;;10.45;5.32;;;14.40;64.50;;;;;;4943460;28;20045;-81
2022/04/28 09:14:11;;;;;;;7.47;4.50;;;14.30;64.00;;;;;;4936869;28;20031;-78
2022/04/28 09:17:02;;;;;;;10.25;4.18;;;14.40;65.00;;;;;;4936155;28;20047;-79
2022/04/28 09:19:34;;;;;;;11.18;4.40;;;14.80;63.00;;;;;;4905222;29;20503;-77
2022/04/28 09:22:09;;;;;;;9.33;4.30;;;15.40;60.80;;;;;;4893725;29;20042;-81
2022/04/28 09:24:36;;;;;;;8.98;4.00;;;16.20;58.90;;;;;;4913915;29;20032;-78
2022/04/28 09:27:03;;;;;;;9.60;4.45;;;17.10;57.10;;;;;;4911867;29;20122;-79
2022/04/28 09:29:30;;;;;;;8.20;4.28;;;17.40;53.50;;;;;;4912965;29;20024;-78
2022/04/28 09:31:56;;;;;;;7.90;4.20;;;17.20;55.60;;;;;;4920842;29;20466;-79
2022/04/28 09:34:24;;;;;;;12.57;4.88;;;16.70;55.90;;;;;;4928618;29;20035;-79
2022/04/28 09:36:50;;;;;;;9.05;5.18;;;16.20;57.10;;;;;;4913197;28;20036;-77
2022/04/28 09:44:50;;;;;;;9.30;4.13;;;16.10;55.30;;;;;;4916481;28;20050;-78
2022/04/28 09:47:19;;;;;;;7.82;4.10;;;16.00;58.20;;;;;;4918662;29;20444;-78
2022/04/28 09:49:52;;;;;;;12.73;4.72;;;16.00;59.50;;;;;;4907922;29;20067;-78
2022/04/28 09:52:36;;;;;;;10.35;4.47;;;16.10;56.50;;;;;;4894324;29;20331;-79
2022/04/28 09:55:03;;;;;;;11.10;4.75;;;15.90;57.10;;;;;;4899866;29;20044;-78
2022/04/28 09:57:29;;;;;;;9.80;4.45;;;16.00;58.60;;;;;;4906467;29;20147;-77
2022/04/28 09:59:57;;;;;;;6.60;3.78;;;16.10;57.70;;;;;;4906104;29;20179;-78
2022/04/28 10:02:26;;;;;;;6.00;4.32;;;16.10;59.70;;;;;;4911479;29;20055;-78
2022/04/28 10:04:53;;;;;;;6.95;4.32;;;16.00;58.70;;;;;;4902391;29;21021;-78
2022/04/28 10:07:20;;;;;;;11.95;5.68;;;15.70;59.10;;;;;;4915924;29;20055;-78
2022/04/28 10:09:50;;;;;;;8.13;3.75;;;15.80;56.70;;;;;;4916813;29;20110;-74
2022/04/28 10:12:27;;;;;;;9.00;4.72;;;16.00;61.60;;;;;;4915578;29;20535;-78
2022/04/28 10:14:54;;;;;;;8.55;5.15;;;16.30;57.90;;;;;;4915238;29;20055;-79
2022/04/28 10:17:30;;;;;;;11.23;5.22;;;16.40;57.70;;;;;;4912450;29;20385;-78
2022/04/28 10:20:01;;;;;;;9.55;5.13;;;16.70;55.50;;;;;;4913840;29;20090;-78
2022/04/28 10:22:32;;;;;;;11.00;5.20;;;17.00;53.90;;;;;;4909142;29;20039;-78
2022/04/28 10:33:20;;;;;;;12.20;5.32;;;17.60;54.50;;;;;;4906113;29;20051;-76
2022/04/28 10:35:54;;;;;;;9.55;5.25;;;17.70;53.50;;;;;;4907757;29;20039;-75
2022/04/28 10:38:36;;;;;;;10.25;4.70;;;17.40;52.10;;;;;;4915789;29;20610;-79
2022/04/28 10:41:07;;;;;;;9.65;5.10;;;17.30;54.50;;;;;;4908864;29;20027;-80
2022/04/28 10:43:33;;;;;;;7.55;4.47;;;17.90;53.80;;;;;;4913432;29;20035;-78
2022/04/28 10:46:22;;;;;;;10.20;4.32;;;18.20;53.00;;;;;;4913161;29;20295;-78
2022/04/28 10:48:52;;;;;;;9.88;4.85;;;18.60;52.10;;;;;;4908842;29;20036;-79
2022/04/28 10:51:23;;;;;;;12.80;5.05;;;18.60;52.10;;;;;;4911950;29;20548;-78
2022/04/28 10:54:09;;;;;;;9.47;5.03;;;18.90;48.20;;;;;;4905554;28;20035;-77
2022/04/28 10:56:50;;;;;;;6.85;4.57;;;19.30;53.60;;;;;;4907419;28;20092;-79
2022/04/28 10:59:40;;;;;;;7.80;4.95;;;20.10;48.30;;;;;;4931417;29;20062;-78
2022/04/28 11:02:11;;;;;;;7.47;5.20;;;20.30;48.10;;;;;;4921994;29;20027;-78
2022/04/28 11:04:40;;;;;;;9.65;4.97;;;20.20;45.60;;;;;;4905646;29;20395;-78
2022/04/28 11:07:14;;;;;;;8.77;4.60;;;19.50;45.90;;;;;;4933790;28;20039;-78
2022/04/28 11:09:42;;;;;;;8.07;5.55;;;19.10;48.10;;;;;;4906271;29;20126;-79
2022/04/28 11:12:12;;;;;;;8.25;5.20;;;19.20;49.60;;;;;;4914745;29;20035;-77
2022/04/28 11:14:44;;;;;;;7.72;5.85;;;19.20;49.40;;;;;;4923871;29;20043;-78
2022/04/28 11:17:11;;;;;;;7.10;5.18;;;19.30;50.00;;;;;;4911876;29;20062;-80
2022/04/28 11:19:36;;;;;;;7.13;5.22;;;19.30;47.40;;;;;;4918265;29;20036;-77
2022/04/28 11:22:03;;;;;;;8.52;4.82;;;19.40;49.30;;;;;;4919172;29;20039;-78
2022/04/28 11:24:29;;;;;;;8.68;4.82;;;19.50;49.50;;;;;;4916414;29;20035;-78
2022/04/28 11:26:59;;;;;;;8.40;5.18;;;19.70;53.20;;;;;;4915072;29;20039;-79
2022/04/28 11:29:24;;;;;;;7.55;5.13;;;19.70;48.90;;;;;;4912042;29;20527;-78
2022/04/28 11:31:53;;;;;;;9.02;5.88;;;19.50;47.50;;;;;;4913996;29;20042;-79
2022/04/28 11:34:19;;;;;;;7.93;4.72;;;19.00;47.50;;;;;;4912206;29;20108;-82
2022/04/28 11:36:44;;;;;;;9.77;5.68;;;19.00;51.00;;;;;;4918827;29;20043;-78
2022/04/28 11:39:10;;;;;;;8.15;5.43;;;18.90;50.60;;;;;;4917924;29;20236;-77
2022/04/28 11:41:40;;;;;;;10.30;5.95;;;18.80;48.50;;;;;;4912279;29;20031;-76
2022/04/28 11:44:16;;;;;;;8.55;6.22;;;18.50;50.20;;;;;;4918454;29;20031;-76
2022/04/28 11:46:42;;;;;;;8.75;5.50;;;18.40;50.30;;;;;;4905990;29;20036;-76
2022/04/28 11:49:08;;;;;;;11.65;5.63;;;18.10;53.50;;;;;;4903967;29;20066;-76
2022/04/28 11:51:34;;;;;;;11.15;6.18;;;17.70;52.70;;;;;;4916851;29;20059;-77
2022/04/28 11:54:01;;;;;;;10.13;6.20;;;17.60;52.20;;;;;;4899952;29;20035;-77
2022/04/28 11:56:33;;;;;;;11.38;6.32;;;17.50;55.10;;;;;;4906345;29;20044;-77
2022/04/28 11:58:58;;;;;;;10.73;5.70;;;17.60;52.40;;;;;;4912523;28;20027;-76
2022/04/28 12:01:26;;;;;;;12.93;6.43;;;17.90;52.90;;;;;;4918299;29;20137;-76
2022/04/28 12:03:57;;;;;;;7.25;5.72;;;18.00;51.90;;;;;;4911650;29;20113;-77
2022/04/28 12:06:24;;;;;;;12.13;7.03;;;18.30;51.60;;;;;;4904924;28;20131;-75
2022/04/28 12:08:51;;;;;;;12.32;6.07;;;18.60;53.00;;;;;;4909967;29;20039;-75
2022/04/28 12:14:23;;;;;;;14.60;7.07;;;19.00;48.90;;;;;;4906565;29;20484;-78
2022/04/28 12:19:48;;;;;;;15.07;6.55;;;18.90;50.50;;;;;;4919971;28;20070;-77
2022/04/28 12:22:23;;;;;;;9.82;6.40;;;18.50;49.80;;;;;;4922559;28;20115;-82
2022/04/28 12:24:49;;;;;;;22.38;9.23;;;18.10;49.50;;;;;;4910615;29;20515;-74
2022/04/28 12:27:15;;;;;;;9.23;6.28;;;18.20;55.60;;;;;;4903668;29;20053;-74
2022/04/28 12:29:52;;;;;;;11.05;6.43;;;18.30;50.90;;;;;;4915107;29;20110;-74
2022/04/28 12:32:22;;;;;;;8.75;6.15;;;18.40;49.40;;;;;;4909082;29;20492;-73
2022/04/28 12:35:03;;;;;;;10.48;6.05;;;18.40;50.70;;;;;;4913861;29;20076;-74
2022/04/28 12:37:29;;;;;;;10.23;6.37;;;18.40;50.60;;;;;;4910569;29;20062;-73
2022/04/28 12:40:00;;;;;;;11.93;5.90;;;18.50;51.80;;;;;;4914712;29;20036;-73
2022/04/28 12:42:29;;;;;;;12.95;6.40;;;18.40;50.30;;;;;;4909547;29;20555;-74
2022/04/28 12:45:00;;;;;;;10.60;5.65;;;18.60;49.60;;;;;;4899903;29;20039;-74
2022/04/28 12:47:40;;;;;;;11.20;6.15;;;18.40;50.20;;;;;;4900573;29;20102;-74
2022/04/28 12:50:26;;;;;;;9.98;6.28;;;18.20;52.40;;;;;;4897559;29;20392;-75
2022/04/28 12:52:52;;;;;;;10.40;6.82;;;18.30;52.70;;;;;;4901649;29;20097;-75
2022/04/28 12:55:19;;;;;;;8.73;6.40;;;17.80;50.10;;;;;;4909167;29;20055;-75
2022/04/28 12:57:46;;;;;;;11.20;6.85;;;17.70;53.50;;;;;;4921014;29;20047;-74
2022/04/28 13:00:13;;;;;;;13.45;7.50;;;17.70;52.20;;;;;;4911706;29;20031;-75
2022/04/28 13:02:46;;;;;;;10.57;6.93;;;17.60;53.60;;;;;;4913296;29;20040;-75
2022/04/28 13:05:14;;;;;;;7.95;6.07;;;17.60;53.10;;;;;;4921950;29;20114;-74
2022/04/28 13:07:40;;;;;;;9.38;6.82;;;17.70;53.50;;;;;;4925741;28;20543;-74
2022/04/28 13:10:08;;;;;;;12.52;7.78;;;17.80;58.80;;;;;;4913549;29;20126;-74
2022/04/28 13:12:33;;;;;;;15.23;8.63;;;17.60;56.10;;;;;;4908802;29;20456;-75
2022/04/28 13:15:01;;;;;;;17.10;10.73;;;17.70;56.00;;;;;;4913080;29;20071;-74
2022/04/28 13:17:27;;;;;;;14.18;8.07;;;17.80;53.90;;;;;;4913423;29;20062;-74
2022/04/28 13:19:53;;;;;;;9.65;7.28;;;17.80;55.70;;;;;;4912906;29;20102;-75
2022/04/28 13:22:19;;;;;;;10.98;8.43;;;17.70;55.10;;;;;;4918965;29;20114;-75
2022/04/28 13:24:45;;;;;;;13.68;7.53;;;17.60;56.20;;;;;;4915084;28;20038;-75
2022/04/28 13:27:11;;;;;;;12.98;7.15;;;17.80;53.20;;;;;;4910254;29;20523;-76